Time;durP1;ratioP1;P1;durP2;ratioP2;P2;SDS_P1;SDS_P2;PMS_P1;PMS_P2;Temp;Humidity;BMP_temperature;BMP_pressure;BME280_temperature;BME280_humidity;BME280_pressure;Samples;Min_cycle;Max_cycle;Signal;HPM_P1;HPM_P2
2023/06/03 00:02:22;;;;;;;0.73;0.73;;;;;;;19.65;89.81;99006.66;4968675;28;20213;-65
2023/06/03 00:04:49;;;;;;;0.50;0.50;;;;;;;19.63;90.09;99009.38;4972805;28;20213;-64
2023/06/03 00:07:16;;;;;;;0.60;0.60;;;;;;;19.54;90.78;99010.06;4973088;28;20206;-64
2023/06/03 00:09:44;;;;;;;0.50;0.50;;;;;;;19.42;90.87;99016.13;4972121;28;20206;-64
2023/06/03 00:12:11;;;;;;;0.60;0.60;;;;;;;19.27;91.82;99018.03;4973432;28;20205;-64
2023/06/03 00:14:38;;;;;;;0.50;0.50;;;;;;;19.14;92.60;99013.81;4971205;28;20232;-65
2023/06/03 00:17:05;;;;;;;0.63;0.63;;;;;;;19.05;93.07;99023.13;4972386;28;20295;-64
2023/06/03 00:19:32;;;;;;;0.60;0.60;;;;;;;19.02;93.66;99022.50;4972344;28;20615;-65
2023/06/03 00:22:00;;;;;;;0.60;0.60;;;;;;;19.01;93.33;99021.66;4971955;28;20297;-64
2023/06/03 00:24:27;;;;;;;0.60;0.60;;;;;;;19.03;93.67;99030.16;4972073;28;20200;-64
2023/06/03 00:26:55;;;;;;;0.70;0.70;;;;;;;18.98;93.65;99037.47;4972248;28;20204;-65
2023/06/03 00:29:22;;;;;;;0.90;0.90;;;;;;;19.02;93.57;99038.91;4969715;28;20206;-64
2023/06/03 00:31:48;;;;;;;0.70;0.70;;;;;;;19.05;93.76;99048.25;4971384;28;20205;-65
2023/06/03 00:34:15;;;;;;;0.57;0.57;;;;;;;19.02;93.92;99044.13;4971801;28;20273;-64
2023/06/03 00:36:42;;;;;;;1.03;0.97;;;;;;;19.02;94.08;99045.88;4972164;28;20649;-64
2023/06/03 00:39:10;;;;;;;0.50;0.50;;;;;;;18.99;94.13;99046.09;4971972;28;20258;-64
2023/06/03 00:41:37;;;;;;;0.60;0.60;;;;;;;18.94;94.15;99040.38;4971871;28;20657;-64
2023/06/03 00:44:05;;;;;;;0.60;0.60;;;;;;;18.90;94.36;99044.16;4967259;28;20195;-65
2023/06/03 00:46:35;;;;;;;0.67;0.67;;;;;;;18.86;94.75;99039.16;4971904;28;20209;-64
2023/06/03 00:49:02;;;;;;;0.60;0.60;;;;;;;18.80;95.16;99039.56;4971854;28;20297;-65
2023/06/03 00:51:30;;;;;;;0.47;0.47;;;;;;;18.63;95.86;99042.50;4966412;28;20196;-64
2023/06/03 00:53:57;;;;;;;0.80;0.80;;;;;;;18.59;96.27;99043.66;4967410;28;20220;-64
2023/06/03 00:56:25;;;;;;;0.50;0.50;;;;;;;18.53;96.67;99043.25;4962503;28;20208;-65
2023/06/03 00:58:51;;;;;;;0.50;0.50;;;;;;;18.51;97.12;99035.56;4960229;28;20206;-64
2023/06/03 01:01:21;;;;;;;0.90;0.90;;;;;;;18.50;96.72;99033.91;4965077;28;20206;-64
2023/06/03 01:03:48;;;;;;;0.80;0.80;;;;;;;18.39;97.29;99025.97;4966247;28;20207;-64
2023/06/03 01:06:22;;;;;;;0.60;0.60;;;;;;;18.36;97.15;99028.78;4968823;28;20258;-63
2023/06/03 01:08:57;;;;;;;0.73;0.73;;;;;;;18.40;96.99;99043.22;4963961;28;20210;-64
2023/06/03 01:11:35;;;;;;;0.60;0.60;;;;;;;18.39;96.99;99041.53;4976618;28;20216;-64
2023/06/03 01:14:08;;;;;;;0.80;0.80;;;;;;;18.38;96.91;99037.31;4973039;28;20221;-64
2023/06/03 01:16:44;;;;;;;0.50;0.50;;;;;;;18.38;97.11;99043.31;4975980;28;20218;-64
2023/06/03 01:19:17;;;;;;;0.60;0.60;;;;;;;18.41;96.82;99039.69;4975756;28;20466;-64
2023/06/03 01:21:47;;;;;;;0.70;0.70;;;;;;;18.42;96.82;99030.94;4975495;28;20290;-64
2023/06/03 01:24:20;;;;;;;0.70;0.70;;;;;;;18.37;96.79;99020.06;4972024;28;20267;-64
2023/06/03 01:26:48;;;;;;;0.80;0.80;;;;;;;18.45;96.25;99033.34;4974171;28;20575;-65
2023/06/03 01:29:14;;;;;;;0.57;0.57;;;;;;;18.45;95.92;99029.94;4975610;28;20239;-64
2023/06/03 01:31:41;;;;;;;1.07;0.70;;;;;;;18.46;95.74;99024.63;4975001;28;20199;-65
2023/06/03 01:34:08;;;;;;;0.73;0.73;;;;;;;18.42;95.52;99028.34;4975168;28;20215;-64
2023/06/03 01:36:36;;;;;;;0.70;0.70;;;;;;;18.32;95.58;99022.13;4975215;28;20204;-64
2023/06/03 01:39:04;;;;;;;0.73;0.73;;;;;;;18.26;95.88;99022.53;4975113;28;20594;-64
2023/06/03 01:41:35;;;;;;;0.60;0.60;;;;;;;18.23;96.12;99013.22;4975124;28;20232;-64
2023/06/03 01:44:01;;;;;;;0.97;0.97;;;;;;;18.21;96.28;99019.44;4975288;28;20592;-64
2023/06/03 01:46:28;;;;;;;0.70;0.70;;;;;;;18.12;96.79;99020.91;4975243;28;20199;-64
2023/06/03 01:48:55;;;;;;;0.73;0.73;;;;;;;18.03;97.04;99015.50;4975219;28;20211;-64
2023/06/03 01:51:26;;;;;;;0.50;0.50;;;;;;;17.95;97.79;99020.34;4974379;28;20204;-64
2023/06/03 01:53:52;;;;;;;0.47;0.47;;;;;;;17.92;97.79;99017.94;4974189;28;20757;-65
2023/06/03 01:56:19;;;;;;;0.60;0.60;;;;;;;17.80;98.51;99015.22;4975102;28;20207;-64
2023/06/03 01:58:47;;;;;;;0.60;0.60;;;;;;;17.66;98.57;98996.34;4975008;28;20286;-64
2023/06/03 02:01:14;;;;;;;0.67;0.67;;;;;;;17.71;98.39;99020.19;4974489;28;20204;-64
2023/06/03 02:03:41;;;;;;;0.50;0.50;;;;;;;17.72;98.28;99017.50;4974358;28;20233;-64
2023/06/03 02:06:08;;;;;;;0.77;0.77;;;;;;;17.70;98.41;99019.38;4974757;28;20204;-65
2023/06/03 02:08:36;;;;;;;0.70;0.70;;;;;;;17.68;98.65;99016.03;4974872;28;20208;-63
2023/06/03 02:11:02;;;;;;;0.53;0.53;;;;;;;17.61;98.73;99014.75;4974783;28;20716;-64
2023/06/03 02:13:29;;;;;;;0.63;0.63;;;;;;;17.58;99.00;99027.09;4971935;28;20282;-65
2023/06/03 02:15:57;;;;;;;0.50;0.50;;;;;;;17.50;99.83;99030.16;4974382;28;20199;-64
2023/06/03 02:18:24;;;;;;;0.90;0.90;;;;;;;17.43;100.00;99026.28;4973295;28;20204;-64
2023/06/03 02:20:52;;;;;;;0.50;0.50;;;;;;;17.41;100.00;99015.22;4973235;28;20204;-64
2023/06/03 02:23:18;;;;;;;0.70;0.70;;;;;;;17.50;100.00;99022.38;4973949;28;20199;-65
2023/06/03 02:25:45;;;;;;;0.63;0.63;;;;;;;17.54;100.00;99018.66;4972774;28;20222;-65
2023/06/03 02:28:12;;;;;;;0.80;0.80;;;;;;;17.56;100.00;99022.00;4974062;28;20215;-64
2023/06/03 02:30:39;;;;;;;0.57;0.57;;;;;;;17.52;100.00;99033.47;4974265;28;20204;-64
2023/06/03 02:33:07;;;;;;;0.70;0.70;;;;;;;17.53;100.00;99027.38;4974199;28;20290;-65
2023/06/03 02:35:35;;;;;;;0.80;0.80;;;;;;;17.47;100.00;99032.94;4973665;28;20246;-63
2023/06/03 02:38:02;;;;;;;0.57;0.57;;;;;;;17.44;100.00;99027.97;4973323;28;20713;-64
2023/06/03 02:40:29;;;;;;;1.17;1.17;;;;;;;17.45;100.00;99021.81;4973986;28;20737;-64
2023/06/03 02:42:55;;;;;;;0.57;0.57;;;;;;;17.47;100.00;99017.41;4973515;28;20211;-64
2023/06/03 02:45:22;;;;;;;0.60;0.60;;;;;;;17.50;100.00;99030.16;4973789;28;20218;-64
2023/06/03 02:47:49;;;;;;;0.50;0.50;;;;;;;17.49;100.00;99031.06;4973328;28;20207;-65
2023/06/03 02:50:17;;;;;;;0.77;0.73;;;;;;;17.47;100.00;99037.28;4973674;28;20234;-64
2023/06/03 02:52:44;;;;;;;0.67;0.67;;;;;;;17.46;100.00;99041.63;4973643;28;20200;-64
2023/06/03 02:55:10;;;;;;;0.80;0.80;;;;;;;17.45;100.00;99045.16;4971256;28;21133;-64
2023/06/03 02:57:37;;;;;;;0.50;0.50;;;;;;;17.42;100.00;99041.91;4973939;28;20274;-64
2023/06/03 03:00:10;;;;;;;0.73;0.73;;;;;;;17.41;100.00;99053.25;4973417;28;20207;-64
2023/06/03 03:02:37;;;;;;;0.50;0.50;;;;;;;17.43;100.00;99052.22;4973165;28;20699;-63
2023/06/03 03:05:04;;;;;;;0.57;0.57;;;;;;;17.43;100.00;99052.22;4972832;28;20664;-64
2023/06/03 03:07:32;;;;;;;0.70;0.70;;;;;;;17.40;100.00;99049.81;4973644;28;20718;-64
2023/06/03 03:09:59;;;;;;;0.60;0.60;;;;;;;17.46;100.00;99057.19;4973267;28;20210;-64
2023/06/03 03:12:26;;;;;;;0.60;0.60;;;;;;;17.45;100.00;99055.50;4973348;28;20668;-64
2023/06/03 03:14:53;;;;;;;0.67;0.67;;;;;;;17.43;100.00;99054.78;4973205;28;20250;-64
2023/06/03 03:17:19;;;;;;;0.63;0.63;;;;;;;17.36;100.00;99053.50;4973259;28;20336;-65
2023/06/03 03:19:46;;;;;;;0.70;0.70;;;;;;;17.35;100.00;99054.44;4973005;28;20204;-64
2023/06/03 03:22:13;;;;;;;0.60;0.60;;;;;;;17.43;100.00;99057.38;4972844;28;20212;-65
2023/06/03 03:24:42;;;;;;;0.50;0.50;;;;;;;17.40;100.00;99042.03;4972953;28;20234;-64
2023/06/03 03:27:09;;;;;;;0.63;0.63;;;;;;;17.51;100.00;99067.28;4972683;28;20209;-64
2023/06/03 03:29:36;;;;;;;0.63;0.63;;;;;;;17.53;100.00;99068.00;4972783;28;20205;-64
2023/06/03 03:32:07;;;;;;;0.60;0.60;;;;;;;17.42;100.00;99055.72;4972768;28;20208;-64
2023/06/03 03:34:36;;;;;;;0.60;0.60;;;;;;;17.62;100.00;99072.63;4972486;28;20750;-65
2023/06/03 03:37:04;;;;;;;0.57;0.57;;;;;;;17.69;100.00;99077.31;4972676;28;20204;-64
2023/06/03 03:39:30;;;;;;;0.50;0.50;;;;;;;17.74;100.00;99083.03;4972726;28;20200;-64
2023/06/03 03:41:58;;;;;;;0.50;0.50;;;;;;;17.80;100.00;99079.25;4971727;28;20203;-64
2023/06/03 03:44:29;;;;;;;0.70;0.70;;;;;;;17.86;100.00;99075.41;4971765;28;20263;-65
2023/06/03 03:47:00;;;;;;;0.50;0.50;;;;;;;17.89;100.00;99072.63;4972531;28;20704;-64
2023/06/03 03:49:29;;;;;;;0.60;0.60;;;;;;;17.92;100.00;99059.44;4972545;28;20197;-64
2023/06/03 03:51:57;;;;;;;0.50;0.50;;;;;;;18.09;100.00;99069.56;4971972;28;20228;-64
2023/06/03 03:54:24;;;;;;;0.70;0.70;;;;;;;18.15;100.00;99066.56;4971693;28;20716;-64
2023/06/03 03:56:54;;;;;;;0.60;0.60;;;;;;;18.09;100.00;99048.81;4970950;28;20295;-65
2023/06/03 03:59:26;;;;;;;0.63;0.63;;;;;;;18.31;100.00;99067.19;4969232;28;20292;-64
2023/06/03 04:01:53;;;;;;;0.40;0.40;;;;;;;18.31;100.00;99069.78;4958161;28;20642;-64
2023/06/03 04:04:37;;;;;;;0.70;0.70;;;;;;;18.33;100.00;99080.88;4968628;28;20209;-64
2023/06/03 04:07:05;;;;;;;1.00;1.00;;;;;;;18.29;100.00;99080.25;4962998;28;20234;-64
2023/06/03 04:09:33;;;;;;;0.73;0.73;;;;;;;18.29;100.00;99082.84;4957635;28;20278;-64
2023/06/03 04:12:02;;;;;;;0.50;0.50;;;;;;;18.34;100.00;99085.16;4959907;28;20201;-64
2023/06/03 04:14:51;;;;;;;0.50;0.50;;;;;;;18.35;100.00;99082.44;4964915;28;20211;-64
2023/06/03 04:17:20;;;;;;;0.50;0.50;;;;;;;18.49;100.00;99091.06;4970238;28;20202;-64
2023/06/03 04:19:48;;;;;;;0.50;0.50;;;;;;;18.61;100.00;99092.88;4971565;28;20205;-64
2023/06/03 04:22:20;;;;;;;0.50;0.50;;;;;;;18.73;100.00;99090.28;4972054;28;20218;-64
2023/06/03 04:24:47;;;;;;;0.80;0.80;;;;;;;18.81;100.00;99087.97;4972148;28;20675;-64
2023/06/03 04:27:14;;;;;;;0.53;0.53;;;;;;;18.98;100.00;99093.78;4957974;28;20213;-64
2023/06/03 04:29:42;;;;;;;0.90;0.90;;;;;;;19.09;100.00;99099.06;4963502;28;20222;-64
2023/06/03 04:32:09;;;;;;;0.50;0.50;;;;;;;19.19;100.00;99102.69;4966112;28;20228;-64
2023/06/03 04:34:49;;;;;;;0.50;0.50;;;;;;;19.32;100.00;99095.69;4960584;28;20227;-64
2023/06/03 04:37:16;;;;;;;0.73;0.73;;;;;;;19.46;100.00;99092.13;4966153;28;20257;-64
2023/06/03 04:39:43;;;;;;;0.50;0.50;;;;;;;19.63;100.00;99092.59;4967466;28;20213;-64
2023/06/03 04:42:10;;;;;;;0.67;0.67;;;;;;;19.80;100.00;99094.00;4971361;28;20211;-64
2023/06/03 04:44:39;;;;;;;0.53;0.53;;;;;;;19.97;100.00;99095.38;4972091;28;20290;-65
2023/06/03 04:47:10;;;;;;;0.60;0.60;;;;;;;20.16;100.00;99098.28;4971832;28;20204;-64
2023/06/03 04:49:37;;;;;;;0.70;0.70;;;;;;;20.37;100.00;99101.91;4970407;28;20642;-64
2023/06/03 04:52:05;;;;;;;0.80;0.80;;;;;;;20.52;100.00;99100.72;4972010;28;20242;-64
2023/06/03 04:54:32;;;;;;;0.50;0.50;;;;;;;20.59;98.70;99091.53;4970731;28;20215;-64
2023/06/03 04:56:58;;;;;;;0.50;0.50;;;;;;;20.85;98.24;99103.38;4972765;28;20576;-65
2023/06/03 04:59:25;;;;;;;0.60;0.60;;;;;;;21.02;97.69;99085.63;4972552;28;20671;-64
2023/06/03 05:01:52;;;;;;;0.70;0.70;;;;;;;21.29;96.51;99101.75;4972165;28;20679;-64
2023/06/03 05:04:22;;;;;;;2.27;1.57;;;;;;;21.45;95.74;99104.81;4971930;28;20207;-65
2023/06/03 05:06:49;;;;;;;0.50;0.50;;;;;;;21.55;95.11;99090.06;4972196;28;20226;-64
2023/06/03 05:09:16;;;;;;;0.40;0.40;;;;;;;21.81;94.37;99101.84;4972499;28;20248;-64
2023/06/03 05:11:44;;;;;;;0.73;0.73;;;;;;;21.98;94.01;99108.34;4971117;28;20258;-62
2023/06/03 05:14:11;;;;;;;0.50;0.50;;;;;;;22.17;93.16;99110.25;4971916;28;20306;-65
2023/06/03 05:16:38;;;;;;;0.70;0.70;;;;;;;22.31;92.02;99104.75;4971345;28;20291;-61
2023/06/03 05:19:05;;;;;;;0.50;0.50;;;;;;;22.51;90.88;99111.75;4969621;28;20199;-60
2023/06/03 05:21:33;;;;;;;0.30;0.30;;;;;;;22.69;90.88;99109.41;4958142;28;20243;-60
2023/06/03 05:24:00;;;;;;;0.93;0.70;;;;;;;22.87;87.53;99119.16;4968453;28;20199;-61
2023/06/03 05:26:26;;;;;;;0.50;0.50;;;;;;;23.02;87.11;99117.00;4967546;28;20231;-60
2023/06/03 05:28:53;;;;;;;0.40;0.40;;;;;;;23.17;85.62;99114.84;4970466;28;20207;-61
2023/06/03 05:31:20;;;;;;;0.40;0.40;;;;;;;23.31;85.32;99122.31;4971341;28;20199;-61
2023/06/03 05:33:47;;;;;;;0.40;0.40;;;;;;;23.40;82.97;99127.63;4971210;28;20207;-61
2023/06/03 05:36:13;;;;;;;1.30;0.70;;;;;;;23.56;80.86;99127.09;4970355;28;20275;-61
2023/06/03 05:38:42;;;;;;;0.50;0.50;;;;;;;23.64;83.47;99119.41;4970019;28;20667;-61
2023/06/03 05:41:08;;;;;;;0.43;0.43;;;;;;;23.71;80.62;99110.06;4970663;28;20215;-61
2023/06/03 05:43:35;;;;;;;0.40;0.40;;;;;;;23.79;80.24;99123.28;4971383;28;20203;-61
2023/06/03 05:46:02;;;;;;;0.60;0.60;;;;;;;23.96;80.12;99125.25;4970210;28;20199;-60
2023/06/03 05:48:28;;;;;;;0.50;0.50;;;;;;;24.04;79.15;99127.97;4971167;28;20667;-61
2023/06/03 05:50:56;;;;;;;0.40;0.40;;;;;;;24.20;78.65;99127.44;4970517;28;20214;-61
2023/06/03 05:53:25;;;;;;;0.43;0.43;;;;;;;24.35;75.53;99125.25;4972899;28;20576;-64
2023/06/03 05:55:53;;;;;;;0.50;0.50;;;;;;;24.35;76.13;99112.16;4973105;28;20235;-61
2023/06/03 05:58:21;;;;;;;0.40;0.40;;;;;;;24.56;75.65;99120.66;4974315;28;20208;-61
2023/06/03 06:00:48;;;;;;;0.63;0.63;;;;;;;24.69;72.57;99123.78;4974853;28;20552;-64
2023/06/03 06:03:16;;;;;;;0.75;0.75;;;;;;;24.74;71.12;99126.00;4972329;28;20960;-63
2023/06/03 06:05:43;;;;;;;0.70;0.70;;;;;;;24.96;74.39;99120.44;4973729;28;20583;-62
2023/06/03 06:08:10;;;;;;;0.40;0.40;;;;;;;25.04;70.94;99116.13;4973317;28;20203;-62
2023/06/03 06:10:36;;;;;;;0.70;0.70;;;;;;;25.14;70.30;99117.91;4973780;28;20267;-62
2023/06/03 06:13:05;;;;;;;0.50;0.50;;;;;;;24.95;70.37;99114.38;4973655;28;20210;-62
2023/06/03 06:15:31;;;;;;;0.40;0.40;;;;;;;25.15;71.19;99124.78;4972567;28;20223;-62
2023/06/03 06:17:58;;;;;;;0.50;0.50;;;;;;;25.33;69.02;99125.66;4965208;28;20215;-62
2023/06/03 06:20:25;;;;;;;0.40;0.40;;;;;;;25.53;68.79;99130.69;4969097;28;20279;-62
2023/06/03 06:22:52;;;;;;;0.50;0.50;;;;;;;25.78;68.93;99118.66;4973966;28;20648;-63
2023/06/03 06:25:19;;;;;;;0.30;0.30;;;;;;;26.00;67.19;99126.09;4973284;28;20228;-62
2023/06/03 06:27:46;;;;;;;0.40;0.40;;;;;;;26.15;66.54;99133.41;4970838;28;20560;-62
2023/06/03 06:30:15;;;;;;;0.40;0.40;;;;;;;26.11;65.25;99136.34;4973648;28;20211;-62
2023/06/03 06:32:48;;;;;;;0.40;0.40;;;;;;;26.21;66.29;99114.44;4974177;28;20672;-63
2023/06/03 06:35:16;;;;;;;0.50;0.50;;;;;;;26.43;64.47;99122.66;4973480;28;20233;-62
2023/06/03 06:37:43;;;;;;;1.27;0.60;;;;;;;26.52;65.93;99119.16;4973622;28;20200;-62
2023/06/03 06:40:17;;;;;;;0.50;0.50;;;;;;;26.64;63.23;99127.59;4973805;28;20588;-63
2023/06/03 06:42:44;;;;;;;0.90;0.70;;;;;;;26.74;62.00;99132.75;4973483;28;20200;-63
2023/06/03 06:45:21;;;;;;;0.40;0.40;;;;;;;26.75;62.01;99129.97;4973465;28;20203;-62
2023/06/03 06:47:48;;;;;;;0.30;0.30;;;;;;;26.87;62.29;99128.75;4973194;28;20754;-62
2023/06/03 06:50:30;;;;;;;0.40;0.40;;;;;;;27.04;61.73;99129.69;4973464;28;20210;-63
2023/06/03 06:52:57;;;;;;;0.93;0.80;;;;;;;27.02;60.78;99127.19;4972569;28;20298;-62
2023/06/03 06:55:39;;;;;;;0.47;0.47;;;;;;;27.20;60.38;99128.91;4972995;28;20223;-62
2023/06/03 06:58:08;;;;;;;0.57;0.57;;;;;;;27.32;58.13;99132.91;4973714;28;20210;-62
2023/06/03 07:00:37;;;;;;;0.40;0.40;;;;;;;27.46;58.57;99137.63;4972072;28;20267;-63
2023/06/03 07:03:06;;;;;;;0.40;0.40;;;;;;;27.53;57.68;99130.69;4973404;28;20207;-62
2023/06/03 07:05:33;;;;;;;0.50;0.50;;;;;;;27.64;56.13;99125.97;4972506;28;20229;-62
2023/06/03 07:07:59;;;;;;;0.53;0.53;;;;;;;27.78;55.21;99129.78;4973243;28;20199;-63
2023/06/03 07:10:26;;;;;;;0.50;0.50;;;;;;;27.85;56.54;99136.03;4973384;28;20195;-62
2023/06/03 07:12:53;;;;;;;0.40;0.40;;;;;;;27.97;55.62;99140.03;4973416;28;20218;-62
2023/06/03 07:15:21;;;;;;;0.80;0.80;;;;;;;27.97;55.83;99133.94;4970326;28;20219;-62
2023/06/03 07:17:51;;;;;;;0.50;0.50;;;;;;;28.00;55.42;99134.44;4973718;28;20207;-62
2023/06/03 07:20:21;;;;;;;0.40;0.40;;;;;;;28.14;55.53;99141.72;4972580;28;20223;-62
2023/06/03 07:22:48;;;;;;;0.50;0.50;;;;;;;28.11;57.42;99147.31;4973098;28;20294;-62
2023/06/03 07:25:31;;;;;;;0.53;0.53;;;;;;;27.97;56.38;99134.75;4972822;28;20415;-63
2023/06/03 07:27:58;;;;;;;0.50;0.50;;;;;;;28.17;56.97;99139.75;4972893;28;20207;-62
2023/06/03 07:30:25;;;;;;;0.60;0.50;;;;;;;28.17;56.23;99154.56;4972918;28;20199;-62
2023/06/03 07:32:59;;;;;;;0.40;0.40;;;;;;;28.30;56.37;99156.72;4972986;28;20215;-62
2023/06/03 07:35:26;;;;;;;0.52;0.52;;;;;;;28.37;54.81;99156.91;4972967;28;20257;-63
2023/06/03 07:37:53;;;;;;;0.40;0.40;;;;;;;28.49;53.50;99153.75;4973021;28;20637;-62
2023/06/03 07:40:19;;;;;;;0.40;0.40;;;;;;;28.68;53.82;99144.69;4973496;28;20218;-62
2023/06/03 07:42:49;;;;;;;0.40;0.40;;;;;;;28.78;54.90;99153.25;4972633;28;20216;-62
2023/06/03 07:45:16;;;;;;;0.45;0.45;;;;;;;28.94;52.29;99144.47;4972294;28;20258;-63
2023/06/03 07:47:42;;;;;;;0.47;0.47;;;;;;;29.01;54.37;99151.56;4972599;28;20204;-63
2023/06/03 07:50:22;;;;;;;0.32;0.32;;;;;;;28.88;52.88;99151.25;4971696;28;20297;-62
2023/06/03 07:52:59;;;;;;;0.50;0.50;;;;;;;29.15;51.98;99152.66;4972810;28;20661;-62
2023/06/03 07:55:26;;;;;;;0.60;0.60;;;;;;;29.00;51.45;99155.19;4971344;28;20298;-62
2023/06/03 07:57:53;;;;;;;0.40;0.40;;;;;;;29.22;50.33;99140.41;4972789;28;20207;-63
2023/06/03 08:00:20;;;;;;;0.47;0.47;;;;;;;29.27;51.06;99142.59;4969734;28;20191;-62
2023/06/03 08:02:46;;;;;;;0.30;0.30;;;;;;;29.39;52.29;99143.84;4971944;28;20587;-63
2023/06/03 08:05:17;;;;;;;0.45;0.45;;;;;;;29.70;52.30;99147.31;4961307;28;20262;-62
2023/06/03 08:07:45;;;;;;;0.70;0.70;;;;;;;29.87;52.31;99148.91;4970924;28;20199;-62
2023/06/03 08:10:23;;;;;;;0.30;0.30;;;;;;;29.82;52.19;99151.22;4968303;28;20624;-62
2023/06/03 08:12:50;;;;;;;0.35;0.35;;;;;;;29.64;51.83;99137.44;4969662;28;20294;-62
2023/06/03 08:15:27;;;;;;;0.50;0.50;;;;;;;29.67;50.56;99139.72;4972131;28;20770;-62
2023/06/03 08:17:55;;;;;;;0.85;0.52;;;;;;;29.79;51.41;99130.41;4971974;28;20261;-63
2023/06/03 08:20:27;;;;;;;0.65;0.43;;;;;;;29.71;50.61;99138.41;4972553;28;20225;-63
2023/06/03 08:22:55;;;;;;;0.60;0.60;;;;;;;29.87;54.65;99132.22;4972496;28;20203;-63
2023/06/03 08:25:22;;;;;;;0.50;0.50;;;;;;;29.95;49.90;99140.91;4972404;28;20656;-63
2023/06/03 08:27:49;;;;;;;0.85;0.77;;;;;;;29.92;49.26;99129.88;4972061;28;20199;-63
2023/06/03 08:30:16;;;;;;;0.68;0.65;;;;;;;29.96;51.79;99133.81;4972101;28;20246;-63
2023/06/03 08:32:44;;;;;;;0.70;0.70;;;;;;;30.11;50.19;99134.69;4972320;28;20206;-62
2023/06/03 08:35:12;;;;;;;0.50;0.50;;;;;;;30.14;49.13;99127.25;4972276;28;20711;-63
2023/06/03 08:37:42;;;;;;;0.43;0.43;;;;;;;30.37;50.90;99135.16;4972111;28;20258;-62
2023/06/03 08:40:11;;;;;;;1.00;0.63;;;;;;;30.39;47.06;99133.13;4971758;28;22691;-63
2023/06/03 08:42:42;;;;;;;0.50;0.50;;;;;;;30.16;46.33;99130.53;4971472;28;20206;-63
2023/06/03 08:45:10;;;;;;;1.55;0.55;;;;;;;30.25;45.94;99135.72;4971781;28;20644;-62
2023/06/03 08:47:47;;;;;;;0.45;0.45;;;;;;;30.43;49.24;99133.63;4972260;28;20203;-63
2023/06/03 08:50:17;;;;;;;0.45;0.45;;;;;;;30.49;47.63;99132.91;4972031;28;20222;-63
2023/06/03 08:52:48;;;;;;;0.50;0.50;;;;;;;30.66;44.96;99142.34;4972346;28;20238;-62
2023/06/03 08:55:17;;;;;;;0.52;0.52;;;;;;;30.67;44.15;99143.97;4971755;28;20406;-62
2023/06/03 08:57:48;;;;;;;0.50;0.50;;;;;;;30.30;45.32;99133.38;4972175;28;20678;-62
2023/06/03 09:00:18;;;;;;;0.50;0.50;;;;;;;30.41;44.82;99143.56;4970247;28;20717;-63
2023/06/03 09:02:47;;;;;;;0.80;0.80;;;;;;;30.52;45.25;99133.38;4971877;28;20246;-62
2023/06/03 09:05:15;;;;;;;0.50;0.50;;;;;;;30.74;47.04;99144.91;4971356;28;20211;-62
2023/06/03 09:07:43;;;;;;;0.70;0.60;;;;;;;30.83;46.28;99142.97;4972431;28;20545;-62
2023/06/03 09:10:13;;;;;;;0.52;0.52;;;;;;;30.82;44.15;99118.38;4971911;28;20203;-63
2023/06/03 09:12:40;;;;;;;0.40;0.40;;;;;;;31.03;43.29;99146.78;4972189;28;20204;-63
2023/06/03 09:15:09;;;;;;;0.50;0.50;;;;;;;30.71;43.04;99143.44;4971921;28;20675;-62
2023/06/03 09:17:37;;;;;;;0.43;0.43;;;;;;;30.52;43.45;99133.38;4971892;28;20578;-63
2023/06/03 09:20:05;;;;;;;0.50;0.50;;;;;;;30.79;44.30;99133.78;4971914;28;20219;-63
2023/06/03 09:22:32;;;;;;;0.38;0.30;;;;;;;30.79;45.26;99129.31;4971898;28;20298;-62
2023/06/03 09:24:58;;;;;;;0.57;0.57;;;;;;;30.83;43.88;99135.88;4973311;28;20261;-62
2023/06/03 09:27:27;;;;;;;0.40;0.40;;;;;;;30.69;44.12;99134.88;4972302;28;20266;-62
2023/06/03 09:29:54;;;;;;;0.60;0.60;;;;;;;30.33;44.99;99125.09;4975551;28;20250;-62
2023/06/03 09:32:21;;;;;;;0.52;0.43;;;;;;;30.04;45.79;99120.53;4975871;28;20739;-62
2023/06/03 09:34:48;;;;;;;0.50;0.50;;;;;;;29.94;45.78;99134.00;4975874;28;20633;-62
2023/06/03 09:37:15;;;;;;;0.60;0.60;;;;;;;29.84;46.52;99133.41;4975315;28;20215;-62
2023/06/03 09:39:43;;;;;;;0.50;0.50;;;;;;;29.66;49.46;99130.19;4976185;28;20196;-63
2023/06/03 09:42:10;;;;;;;0.30;0.30;;;;;;;29.42;49.67;99135.59;4975355;28;20266;-62
2023/06/03 09:44:49;;;;;;;0.85;0.85;;;;;;;29.20;47.98;99131.84;4975175;28;20199;-63
2023/06/03 09:47:16;;;;;;;0.32;0.32;;;;;;;29.22;50.54;99142.22;4975424;28;20270;-62
2023/06/03 09:50:01;;;;;;;1.35;0.70;;;;;;;29.10;51.28;99134.69;4974888;28;20556;-62
2023/06/03 09:52:32;;;;;;;0.40;0.40;;;;;;;29.04;50.88;99140.66;4973108;28;20297;-62
2023/06/03 09:55:02;;;;;;;0.40;0.40;;;;;;;28.96;50.09;99145.13;4975256;28;20239;-62
2023/06/03 09:57:29;;;;;;;0.68;0.68;;;;;;;28.79;50.31;99141.69;4975204;28;20263;-62
2023/06/03 10:00:07;;;;;;;0.50;0.50;;;;;;;28.66;49.68;99149.28;4975300;28;20259;-61
2023/06/03 10:02:35;;;;;;;0.80;0.73;;;;;;;28.59;50.40;99145.69;4975178;28;20671;-62
2023/06/03 10:05:02;;;;;;;0.23;0.23;;;;;;;28.45;50.11;99149.81;4974743;28;20208;-62
2023/06/03 10:07:29;;;;;;;0.50;0.50;;;;;;;28.62;49.97;99155.91;4974813;28;20214;-62
2023/06/03 10:10:04;;;;;;;0.63;0.63;;;;;;;28.37;50.14;99162.19;4973631;28;20679;-62
2023/06/03 10:12:33;;;;;;;1.50;0.53;;;;;;;28.31;49.65;99152.25;4974890;28;20210;-62
2023/06/03 10:15:00;;;;;;;0.53;0.53;;;;;;;28.44;48.89;99163.13;4974369;28;20195;-62
2023/06/03 10:17:28;;;;;;;0.40;0.40;;;;;;;28.45;50.46;99156.88;4974521;28;20306;-62
2023/06/03 10:19:58;;;;;;;3.53;0.40;;;;;;;28.31;49.52;99162.81;4974685;28;20275;-62
2023/06/03 10:22:26;;;;;;;0.23;0.23;;;;;;;28.12;50.72;99159.50;4970533;28;20290;-62
2023/06/03 10:24:56;;;;;;;0.30;0.30;;;;;;;28.13;50.41;99166.44;4974912;28;20285;-62
2023/06/03 10:27:23;;;;;;;0.60;0.60;;;;;;;28.24;49.79;99161.84;4974471;28;20239;-62
2023/06/03 10:29:53;;;;;;;0.45;0.45;;;;;;;28.39;51.55;99160.19;4974151;28;20607;-62
2023/06/03 10:32:22;;;;;;;0.80;0.80;;;;;;;28.46;53.96;99148.00;4973843;28;20203;-62
2023/06/03 10:34:51;;;;;;;0.50;0.50;;;;;;;28.66;49.99;99152.75;4974080;28;20208;-62
2023/06/03 10:37:19;;;;;;;0.30;0.30;;;;;;;28.60;49.35;99152.56;4973909;28;20231;-62
2023/06/03 10:39:46;;;;;;;0.30;0.30;;;;;;;28.45;49.59;99148.97;4973049;28;20199;-62
2023/06/03 10:42:13;;;;;;;0.45;0.45;;;;;;;28.65;52.31;99131.81;4973726;28;20208;-62
2023/06/03 10:44:40;;;;;;;0.30;0.30;;;;;;;28.76;49.94;99144.66;4974043;28;20671;-62
2023/06/03 10:47:10;;;;;;;0.20;0.20;;;;;;;28.70;49.29;99137.44;4974304;28;20571;-63
2023/06/03 10:49:40;;;;;;;0.50;0.50;;;;;;;28.38;50.85;99147.97;4971080;28;20669;-62
2023/06/03 10:52:23;;;;;;;0.60;0.60;;;;;;;28.46;50.59;99145.34;4974245;28;20207;-62
2023/06/03 10:54:59;;;;;;;0.43;0.28;;;;;;;28.49;51.77;99140.56;4974078;28;20226;-63
2023/06/03 10:57:32;;;;;;;0.30;0.30;;;;;;;28.43;51.90;99137.78;4974178;28;20274;-62
2023/06/03 10:59:59;;;;;;;0.40;0.40;;;;;;;28.50;52.59;99131.66;4973870;28;20208;-62
2023/06/03 11:02:26;;;;;;;0.40;0.40;;;;;;;28.40;51.49;99138.09;4975248;28;20206;-63
2023/06/03 11:05:22;;;;;;;0.30;0.30;;;;;;;28.37;53.41;99135.81;4974049;28;20738;-62
2023/06/03 11:07:51;;;;;;;1.30;0.40;;;;;;;28.36;52.37;99136.78;4973749;28;20278;-64
2023/06/03 11:10:42;;;;;;;0.30;0.30;;;;;;;28.30;53.46;99140.09;4973826;28;20294;-62
2023/06/03 11:13:11;;;;;;;1.03;0.40;;;;;;;28.34;53.21;99138.75;4973741;28;20215;-62
2023/06/03 11:16:00;;;;;;;0.43;0.43;;;;;;;28.41;52.56;99143.19;4973497;28;20258;-63
2023/06/03 11:18:27;;;;;;;0.40;0.40;;;;;;;28.21;52.73;99141.88;4974940;28;20252;-62
2023/06/03 11:20:54;;;;;;;0.43;0.43;;;;;;;28.06;52.70;99148.78;4973988;28;20196;-62
2023/06/03 11:23:41;;;;;;;0.37;0.37;;;;;;;28.08;51.86;99147.63;4973464;28;20207;-62
2023/06/03 11:26:34;;;;;;;0.57;0.57;;;;;;;28.20;54.35;99148.16;4971556;28;20235;-62
2023/06/03 11:29:04;;;;;;;0.30;0.30;;;;;;;28.26;54.82;99136.13;4972698;28;20254;-62
2023/06/03 11:31:33;;;;;;;0.20;0.20;;;;;;;28.13;53.53;99144.53;4973673;28;20629;-62
2023/06/03 11:34:22;;;;;;;0.30;0.30;;;;;;;28.15;55.08;99148.63;4973067;28;20210;-64
2023/06/03 11:36:50;;;;;;;0.43;0.43;;;;;;;28.25;55.25;99158.19;4971398;28;20565;-63
2023/06/03 11:39:18;;;;;;;0.40;0.40;;;;;;;28.15;53.96;99163.63;4973098;28;20290;-63
2023/06/03 11:42:09;;;;;;;0.60;0.60;;;;;;;28.09;55.16;99159.84;4973481;28;20203;-63